sensor_id;sensor_type;location;lat;lon;timestamp;pressure;altitude;pressure_sealevel;temperature;humidity
55990;BME280;41875;55.806;38.082;2024-03-02T00:01:44;100645.63;;;4.50;66.79
55990;BME280;41875;55.806;38.082;2024-03-02T00:04:47;100643.88;;;4.20;68.65
55990;BME280;41875;55.806;38.082;2024-03-02T00:07:54;100644.97;;;4.47;67.95
55990;BME280;41875;55.806;38.082;2024-03-02T00:11:00;100639.44;;;4.51;67.88
55990;BME280;41875;55.806;38.082;2024-03-02T00:14:08;100639.69;;;4.32;68.06
55990;BME280;41875;55.806;38.082;2024-03-02T00:17:22;100636.00;;;4.20;68.63
55990;BME280;41875;55.806;38.082;2024-03-02T00:20:28;100625.66;;;4.33;68.01
55990;BME280;41875;55.806;38.082;2024-03-02T00:23:33;100623.63;;;4.38;67.78
55990;BME280;41875;55.806;38.082;2024-03-02T00:26:37;100623.72;;;4.06;68.92
55990;BME280;41875;55.806;38.082;2024-03-02T00:29:43;100628.63;;;4.27;68.08
55990;BME280;41875;55.806;38.082;2024-03-02T00:32:47;100632.94;;;3.67;70.39
55990;BME280;41875;55.806;38.082;2024-03-02T00:35:55;100623.50;;;3.32;72.11
55990;BME280;41875;55.806;38.082;2024-03-02T00:38:59;100627.56;;;3.38;72.43
55990;BME280;41875;55.806;38.082;2024-03-02T00:42:03;100615.63;;;3.48;72.02
55990;BME280;41875;55.806;38.082;2024-03-02T00:45:09;100620.59;;;3.69;71.38
55990;BME280;41875;55.806;38.082;2024-03-02T00:48:15;100629.22;;;3.71;70.86
55990;BME280;41875;55.806;38.082;2024-03-02T00:51:19;100624.16;;;3.68;70.82
55990;BME280;41875;55.806;38.082;2024-03-02T00:54:25;100627.25;;;3.91;70.13
55990;BME280;41875;55.806;38.082;2024-03-02T00:57:33;100629.75;;;3.62;70.92
55990;BME280;41875;55.806;38.082;2024-03-02T01:00:40;100630.41;;;3.65;71.03
55990;BME280;41875;55.806;38.082;2024-03-02T01:03:44;100632.50;;;3.75;71.05
55990;BME280;41875;55.806;38.082;2024-03-02T01:06:54;100623.59;;;3.63;70.83
55990;BME280;41875;55.806;38.082;2024-03-02T01:10:02;100624.34;;;3.33;72.39
55990;BME280;41875;55.806;38.082;2024-03-02T01:13:08;100629.66;;;3.31;72.73
55990;BME280;41875;55.806;38.082;2024-03-02T01:16:15;100632.88;;;3.53;72.14
55990;BME280;41875;55.806;38.082;2024-03-02T01:19:19;100632.03;;;3.36;72.80
55990;BME280;41875;55.806;38.082;2024-03-02T01:22:26;100635.50;;;3.53;72.33
55990;BME280;41875;55.806;38.082;2024-03-02T01:25:30;100633.88;;;3.34;72.86
55990;BME280;41875;55.806;38.082;2024-03-02T01:28:36;100644.09;;;3.07;74.26
55990;BME280;41875;55.806;38.082;2024-03-02T01:31:45;100649.66;;;3.00;75.07
55990;BME280;41875;55.806;38.082;2024-03-02T01:34:50;100638.38;;;3.16;74.41
55990;BME280;41875;55.806;38.082;2024-03-02T01:37:53;100647.81;;;3.18;74.17
55990;BME280;41875;55.806;38.082;2024-03-02T01:41:00;100652.31;;;3.16;74.29
55990;BME280;41875;55.806;38.082;2024-03-02T01:48:38;100637.84;;;3.09;74.08
55990;BME280;41875;55.806;38.082;2024-03-02T01:51:45;100649.03;;;3.29;73.61
55990;BME280;41875;55.806;38.082;2024-03-02T01:54:50;100649.59;;;3.34;73.27
55990;BME280;41875;55.806;38.082;2024-03-02T01:57:59;100663.28;;;3.71;71.92
55990;BME280;41875;55.806;38.082;2024-03-02T02:01:10;100659.56;;;3.75;70.76
55990;BME280;41875;55.806;38.082;2024-03-02T02:04:18;100656.19;;;3.57;71.31
55990;BME280;41875;55.806;38.082;2024-03-02T02:07:27;100662.44;;;3.55;71.70
55990;BME280;41875;55.806;38.082;2024-03-02T02:10:31;100663.03;;;3.76;71.15
55990;BME280;41875;55.806;38.082;2024-03-02T02:13:37;100655.69;;;3.34;72.64
55990;BME280;41875;55.806;38.082;2024-03-02T02:16:43;100664.44;;;3.01;74.07
55990;BME280;41875;55.806;38.082;2024-03-02T02:19:52;100661.44;;;3.41;72.73
55990;BME280;41875;55.806;38.082;2024-03-02T02:22:58;100667.94;;;3.50;72.34
55990;BME280;41875;55.806;38.082;2024-03-02T02:26:05;100666.06;;;3.36;72.55
55990;BME280;41875;55.806;38.082;2024-03-02T02:29:11;100662.47;;;3.39;72.66
55990;BME280;41875;55.806;38.082;2024-03-02T02:32:15;100672.59;;;3.45;72.38
55990;BME280;41875;55.806;38.082;2024-03-02T02:35:22;100667.59;;;3.56;71.75
55990;BME280;41875;55.806;38.082;2024-03-02T02:38:29;100676.41;;;3.55;72.47
55990;BME280;41875;55.806;38.082;2024-03-02T02:41:33;100676.19;;;3.90;70.32
55990;BME280;41875;55.806;38.082;2024-03-02T02:44:40;100668.69;;;3.68;70.78
55990;BME280;41875;55.806;38.082;2024-03-02T02:47:43;100673.50;;;3.92;69.95
55990;BME280;41875;55.806;38.082;2024-03-02T02:50:47;100666.72;;;3.72;70.49
55990;BME280;41875;55.806;38.082;2024-03-02T02:53:53;100658.38;;;3.65;70.96
55990;BME280;41875;55.806;38.082;2024-03-02T02:56:56;100674.53;;;3.41;71.79
55990;BME280;41875;55.806;38.082;2024-03-02T03:00:02;100672.50;;;3.30;73.00
55990;BME280;41875;55.806;38.082;2024-03-02T03:03:21;100653.88;;;3.03;73.30
55990;BME280;41875;55.806;38.082;2024-03-02T03:06:28;100651.19;;;3.20;73.61
55990;BME280;41875;55.806;38.082;2024-03-02T03:09:38;100667.41;;;3.27;73.14
55990;BME280;41875;55.806;38.082;2024-03-02T03:12:42;100671.63;;;2.98;73.91
55990;BME280;41875;55.806;38.082;2024-03-02T03:15:48;100658.31;;;2.69;75.75
55990;BME280;41875;55.806;38.082;2024-03-02T03:18:53;100668.44;;;2.57;76.17
55990;BME280;41875;55.806;38.082;2024-03-02T03:21:57;100641.13;;;2.97;74.54
55990;BME280;41875;55.806;38.082;2024-03-02T03:25:11;100652.38;;;2.99;74.50
55990;BME280;41875;55.806;38.082;2024-03-02T03:28:15;100659.22;;;3.01;74.12
55990;BME280;41875;55.806;38.082;2024-03-02T03:31:23;100662.88;;;2.81;75.45
55990;BME280;41875;55.806;38.082;2024-03-02T03:34:28;100664.81;;;2.78;75.25
55990;BME280;41875;55.806;38.082;2024-03-02T03:37:32;100662.00;;;2.47;76.15
55990;BME280;41875;55.806;38.082;2024-03-02T03:40:40;100665.25;;;2.35;77.28
55990;BME280;41875;55.806;38.082;2024-03-02T03:43:47;100662.88;;;2.48;77.26
55990;BME280;41875;55.806;38.082;2024-03-02T03:47:16;100648.63;;;2.53;76.33
55990;BME280;41875;55.806;38.082;2024-03-02T03:50:42;100656.78;;;2.81;75.56
55990;BME280;41875;55.806;38.082;2024-03-02T03:54:12;100642.94;;;2.27;77.08
55990;BME280;41875;55.806;38.082;2024-03-02T03:57:26;100662.78;;;2.32;77.44
55990;BME280;41875;55.806;38.082;2024-03-02T04:00:55;100665.50;;;2.81;75.13
55990;BME280;41875;55.806;38.082;2024-03-02T04:04:03;100668.69;;;2.70;75.73
55990;BME280;41875;55.806;38.082;2024-03-02T04:07:07;100668.28;;;2.78;74.92
55990;BME280;41875;55.806;38.082;2024-03-02T04:10:15;100656.13;;;3.27;72.73
55990;BME280;41875;55.806;38.082;2024-03-02T04:13:23;100670.91;;;3.60;71.70
55990;BME280;41875;55.806;38.082;2024-03-02T04:16:27;100676.47;;;3.54;71.58
55990;BME280;41875;55.806;38.082;2024-03-02T04:19:31;100668.91;;;2.99;73.69
55990;BME280;41875;55.806;38.082;2024-03-02T04:22:35;100674.06;;;2.50;75.25
55990;BME280;41875;55.806;38.082;2024-03-02T04:25:38;100679.53;;;2.96;74.55
55990;BME280;41875;55.806;38.082;2024-03-02T04:28:43;100674.34;;;3.12;73.24
55990;BME280;41875;55.806;38.082;2024-03-02T04:31:47;100669.03;;;3.14;72.52
55990;BME280;41875;55.806;38.082;2024-03-02T04:34:54;100672.09;;;2.88;73.17
55990;BME280;41875;55.806;38.082;2024-03-02T04:37:57;100673.16;;;3.02;73.44
55990;BME280;41875;55.806;38.082;2024-03-02T04:41:01;100666.03;;;2.88;74.14
55990;BME280;41875;55.806;38.082;2024-03-02T04:44:09;100678.31;;;3.03;73.00
55990;BME280;41875;55.806;38.082;2024-03-02T04:47:16;100675.97;;;3.31;72.00
55990;BME280;41875;55.806;38.082;2024-03-02T04:50:19;100671.72;;;3.12;72.56
55990;BME280;41875;55.806;38.082;2024-03-02T04:53:23;100665.00;;;3.24;72.04
55990;BME280;41875;55.806;38.082;2024-03-02T04:56:32;100653.75;;;3.38;70.88
55990;BME280;41875;55.806;38.082;2024-03-02T05:08:51;100675.56;;;2.89;74.26
55990;BME280;41875;55.806;38.082;2024-03-02T05:11:55;100676.25;;;2.93;73.87
55990;BME280;41875;55.806;38.082;2024-03-02T05:15:21;100676.56;;;3.20;72.23
55990;BME280;41875;55.806;38.082;2024-03-02T05:18:25;100684.09;;;2.59;74.72
55990;BME280;41875;55.806;38.082;2024-03-02T05:21:29;100675.59;;;2.71;74.61
55990;BME280;41875;55.806;38.082;2024-03-02T05:24:34;100677.28;;;3.06;73.30
55990;BME280;41875;55.806;38.082;2024-03-02T05:27:38;100679.84;;;3.24;72.71
55990;BME280;41875;55.806;38.082;2024-03-02T05:30:42;100671.41;;;3.34;71.29
55990;BME280;41875;55.806;38.082;2024-03-02T05:33:46;100664.47;;;3.17;72.02
55990;BME280;41875;55.806;38.082;2024-03-02T05:36:52;100672.75;;;3.26;72.14
55990;BME280;41875;55.806;38.082;2024-03-02T05:39:58;100672.19;;;3.03;72.42
55990;BME280;41875;55.806;38.082;2024-03-02T05:43:04;100664.03;;;3.57;70.53
55990;BME280;41875;55.806;38.082;2024-03-02T05:46:08;100663.97;;;3.43;71.56
55990;BME280;41875;55.806;38.082;2024-03-02T05:49:11;100669.94;;;3.13;71.90
55990;BME280;41875;55.806;38.082;2024-03-02T05:52:16;100668.47;;;2.91;73.78
55990;BME280;41875;55.806;38.082;2024-03-02T05:55:27;100679.38;;;2.99;72.78
55990;BME280;41875;55.806;38.082;2024-03-02T05:58:34;100676.28;;;3.09;72.45
55990;BME280;41875;55.806;38.082;2024-03-02T06:01:52;100670.16;;;3.58;70.41
55990;BME280;41875;55.806;38.082;2024-03-02T06:04:56;100687.81;;;3.70;69.83
55990;BME280;41875;55.806;38.082;2024-03-02T06:08:01;100686.47;;;3.31;71.09
55990;BME280;41875;55.806;38.082;2024-03-02T06:11:08;100694.16;;;3.50;70.49
55990;BME280;41875;55.806;38.082;2024-03-02T06:14:15;100687.13;;;3.34;70.25
55990;BME280;41875;55.806;38.082;2024-03-02T06:17:19;100694.78;;;3.05;71.99
55990;BME280;41875;55.806;38.082;2024-03-02T06:20:42;100693.91;;;3.39;70.73
55990;BME280;41875;55.806;38.082;2024-03-02T06:23:50;100684.47;;;2.51;73.85
55990;BME280;41875;55.806;38.082;2024-03-02T06:27:16;100670.63;;;3.48;70.04
55990;BME280;41875;55.806;38.082;2024-03-02T06:30:20;100692.94;;;3.24;70.22
55990;BME280;41875;55.806;38.082;2024-03-02T06:33:24;100692.63;;;3.62;68.76
55990;BME280;41875;55.806;38.082;2024-03-02T06:36:38;100693.31;;;3.65;68.89
55990;BME280;41875;55.806;38.082;2024-03-02T06:39:44;100696.22;;;3.11;70.43
55990;BME280;41875;55.806;38.082;2024-03-02T06:42:52;100693.69;;;3.10;70.14
55990;BME280;41875;55.806;38.082;2024-03-02T06:45:58;100706.66;;;3.45;70.11
55990;BME280;41875;55.806;38.082;2024-03-02T06:49:01;100696.16;;;3.77;68.08
55990;BME280;41875;55.806;38.082;2024-03-02T06:52:08;100693.56;;;3.61;68.52
55990;BME280;41875;55.806;38.082;2024-03-02T06:55:14;100700.16;;;3.84;68.01
55990;BME280;41875;55.806;38.082;2024-03-02T06:58:20;100706.88;;;4.04;67.52
55990;BME280;41875;55.806;38.082;2024-03-02T07:01:24;100710.63;;;3.84;68.53
55990;BME280;41875;55.806;38.082;2024-03-02T07:04:28;100705.75;;;4.08;67.28
55990;BME280;41875;55.806;38.082;2024-03-02T07:07:32;100711.34;;;4.02;67.84
55990;BME280;41875;55.806;38.082;2024-03-02T07:10:37;100707.03;;;4.32;66.60
55990;BME280;41875;55.806;38.082;2024-03-02T07:13:42;100707.72;;;4.05;66.75
55990;BME280;41875;55.806;38.082;2024-03-02T07:16:45;100706.72;;;3.59;67.80
55990;BME280;41875;55.806;38.082;2024-03-02T07:19:49;100704.03;;;3.93;66.75
55990;BME280;41875;55.806;38.082;2024-03-02T07:22:53;100702.03;;;4.43;64.91
55990;BME280;41875;55.806;38.082;2024-03-02T07:25:58;100704.16;;;4.06;65.72
55990;BME280;41875;55.806;38.082;2024-03-02T07:29:08;100702.91;;;3.97;65.97
55990;BME280;41875;55.806;38.082;2024-03-02T07:32:21;100705.50;;;4.43;64.92
55990;BME280;41875;55.806;38.082;2024-03-02T07:35:25;100704.53;;;3.51;67.57
55990;BME280;41875;55.806;38.082;2024-03-02T07:38:30;100692.00;;;3.41;67.55
55990;BME280;41875;55.806;38.082;2024-03-02T07:41:34;100700.09;;;4.00;65.78
55990;BME280;41875;55.806;38.082;2024-03-02T07:44:39;100695.69;;;4.17;64.95
55990;BME280;41875;55.806;38.082;2024-03-02T07:47:44;100686.34;;;3.96;65.81
55990;BME280;41875;55.806;38.082;2024-03-02T07:50:48;100681.34;;;4.53;63.69
55990;BME280;41875;55.806;38.082;2024-03-02T07:53:52;100687.25;;;4.56;62.50
55990;BME280;41875;55.806;38.082;2024-03-02T07:56:57;100676.50;;;4.76;61.37
55990;BME280;41875;55.806;38.082;2024-03-02T08:00:03;100687.50;;;4.07;64.05
55990;BME280;41875;55.806;38.082;2024-03-02T08:03:13;100690.59;;;4.14;63.87
55990;BME280;41875;55.806;38.082;2024-03-02T08:06:18;100687.94;;;4.75;61.50
55990;BME280;41875;55.806;38.082;2024-03-02T08:09:23;100690.59;;;4.14;63.53
55990;BME280;41875;55.806;38.082;2024-03-02T08:12:28;100697.75;;;3.31;66.15
55990;BME280;41875;55.806;38.082;2024-03-02T08:15:33;100687.63;;;3.73;65.21
55990;BME280;41875;55.806;38.082;2024-03-02T08:18:38;100690.75;;;3.80;65.41
55990;BME280;41875;55.806;38.082;2024-03-02T08:21:42;100685.34;;;3.83;64.72
55990;BME280;41875;55.806;38.082;2024-03-02T08:24:50;100685.84;;;3.90;64.86
55990;BME280;41875;55.806;38.082;2024-03-02T08:27:57;100685.34;;;4.30;63.68
55990;BME280;41875;55.806;38.082;2024-03-02T08:31:05;100683.72;;;4.27;63.98
55990;BME280;41875;55.806;38.082;2024-03-02T08:34:11;100679.38;;;4.42;62.88
55990;BME280;41875;55.806;38.082;2024-03-02T08:37:15;100686.28;;;3.50;66.35
55990;BME280;41875;55.806;38.082;2024-03-02T08:40:19;100681.44;;;4.51;63.36
55990;BME280;41875;55.806;38.082;2024-03-02T08:43:23;100685.31;;;4.89;61.81
55990;BME280;41875;55.806;38.082;2024-03-02T08:46:28;100690.28;;;4.79;62.45
55990;BME280;41875;55.806;38.082;2024-03-02T08:49:33;100689.00;;;4.41;63.29
55990;BME280;41875;55.806;38.082;2024-03-02T08:52:39;100696.66;;;4.00;64.89
55990;BME280;41875;55.806;38.082;2024-03-02T08:55:45;100680.91;;;4.61;63.09
55990;BME280;41875;55.806;38.082;2024-03-02T08:58:49;100687.41;;;4.39;63.11
55990;BME280;41875;55.806;38.082;2024-03-02T09:01:54;100684.28;;;4.02;65.12
55990;BME280;41875;55.806;38.082;2024-03-02T09:04:58;100678.13;;;4.33;64.13
55990;BME280;41875;55.806;38.082;2024-03-02T09:08:03;100684.25;;;4.63;63.21
55990;BME280;41875;55.806;38.082;2024-03-02T09:11:10;100681.16;;;4.70;62.54
55990;BME280;41875;55.806;38.082;2024-03-02T09:14:16;100690.63;;;4.44;63.21
55990;BME280;41875;55.806;38.082;2024-03-02T09:17:26;100678.16;;;4.48;63.96
55990;BME280;41875;55.806;38.082;2024-03-02T09:20:30;100688.91;;;4.43;63.99
55990;BME280;41875;55.806;38.082;2024-03-02T09:23:34;100681.69;;;4.16;64.75
55990;BME280;41875;55.806;38.082;2024-03-02T09:26:41;100687.69;;;4.34;64.02
55990;BME280;41875;55.806;38.082;2024-03-02T09:29:44;100699.53;;;4.70;62.76
55990;BME280;41875;55.806;38.082;2024-03-02T09:32:50;100695.38;;;4.37;63.59
55990;BME280;41875;55.806;38.082;2024-03-02T09:35:53;100696.38;;;4.04;64.90
55990;BME280;41875;55.806;38.082;2024-03-02T09:38:59;100688.59;;;4.03;64.20
55990;BME280;41875;55.806;38.082;2024-03-02T09:42:04;100682.50;;;4.33;63.12
55990;BME280;41875;55.806;38.082;2024-03-02T09:45:09;100676.78;;;4.85;61.04
55990;BME280;41875;55.806;38.082;2024-03-02T09:48:14;100676.53;;;4.31;62.86
55990;BME280;41875;55.806;38.082;2024-03-02T09:51:20;100675.72;;;4.14;62.63
55990;BME280;41875;55.806;38.082;2024-03-02T09:54:24;100686.66;;;3.90;63.92
55990;BME280;41875;55.806;38.082;2024-03-02T09:57:28;100685.03;;;4.04;63.42
55990;BME280;41875;55.806;38.082;2024-03-02T10:00:32;100681.75;;;4.00;63.23
55990;BME280;41875;55.806;38.082;2024-03-02T10:03:37;100679.09;;;4.16;62.38
55990;BME280;41875;55.806;38.082;2024-03-02T10:06:44;100674.59;;;3.72;64.04
55990;BME280;41875;55.806;38.082;2024-03-02T10:09:48;100677.34;;;4.76;61.02
55990;BME280;41875;55.806;38.082;2024-03-02T10:13:03;100664.94;;;5.07;58.73
55990;BME280;41875;55.806;38.082;2024-03-02T10:16:12;100665.47;;;5.41;57.07
55990;BME280;41875;55.806;38.082;2024-03-02T10:19:18;100659.16;;;5.58;54.66
55990;BME280;41875;55.806;38.082;2024-03-02T10:22:23;100659.69;;;5.07;57.14
55990;BME280;41875;55.806;38.082;2024-03-02T10:25:29;100656.44;;;5.87;54.90
55990;BME280;41875;55.806;38.082;2024-03-02T10:28:52;100662.88;;;5.96;54.70
55990;BME280;41875;55.806;38.082;2024-03-02T10:32:02;100672.72;;;4.20;58.87
55990;BME280;41875;55.806;38.082;2024-03-02T10:35:08;100660.91;;;4.72;57.46
55990;BME280;41875;55.806;38.082;2024-03-02T10:38:11;100669.22;;;5.37;55.09
55990;BME280;41875;55.806;38.082;2024-03-02T10:41:17;100663.31;;;5.75;54.38
55990;BME280;41875;55.806;38.082;2024-03-02T10:44:22;100664.19;;;5.61;54.13
55990;BME280;41875;55.806;38.082;2024-03-02T10:47:27;100659.53;;;6.07;53.33
55990;BME280;41875;55.806;38.082;2024-03-02T10:50:34;100666.72;;;5.21;54.89
55990;BME280;41875;55.806;38.082;2024-03-02T10:53:37;100661.66;;;5.18;55.56
55990;BME280;41875;55.806;38.082;2024-03-02T10:56:49;100665.06;;;5.62;54.01
55990;BME280;41875;55.806;38.082;2024-03-02T10:59:56;100667.97;;;5.15;55.48
55990;BME280;41875;55.806;38.082;2024-03-02T11:03:06;100664.72;;;5.39;54.55
55990;BME280;41875;55.806;38.082;2024-03-02T11:06:16;100663.09;;;5.51;54.80
55990;BME280;41875;55.806;38.082;2024-03-02T11:09:22;100669.81;;;5.28;54.81
55990;BME280;41875;55.806;38.082;2024-03-02T11:12:29;100663.84;;;4.97;55.66
55990;BME280;41875;55.806;38.082;2024-03-02T11:15:35;100666.09;;;5.17;55.38
55990;BME280;41875;55.806;38.082;2024-03-02T11:18:40;100669.25;;;4.65;56.73
55990;BME280;41875;55.806;38.082;2024-03-02T11:21:47;100665.88;;;4.77;56.38
55990;BME280;41875;55.806;38.082;2024-03-02T11:24:52;100678.78;;;5.38;54.79
55990;BME280;41875;55.806;38.082;2024-03-02T11:28:00;100681.84;;;5.03;55.41
55990;BME280;41875;55.806;38.082;2024-03-02T11:31:04;100681.56;;;5.08;54.98
55990;BME280;41875;55.806;38.082;2024-03-02T11:34:17;100679.13;;;4.90;55.75
55990;BME280;41875;55.806;38.082;2024-03-02T11:37:25;100682.03;;;4.71;55.44
55990;BME280;41875;55.806;38.082;2024-03-02T11:40:29;100682.03;;;5.00;54.77
55990;BME280;41875;55.806;38.082;2024-03-02T11:43:33;100679.69;;;5.24;53.86
55990;BME280;41875;55.806;38.082;2024-03-02T11:46:39;100682.16;;;5.55;53.18
55990;BME280;41875;55.806;38.082;2024-03-02T11:49:44;100683.91;;;4.98;54.10
55990;BME280;41875;55.806;38.082;2024-03-02T11:52:50;100679.19;;;5.32;53.60
55990;BME280;41875;55.806;38.082;2024-03-02T11:55:55;100674.13;;;5.71;52.97
55990;BME280;41875;55.806;38.082;2024-03-02T11:59:00;100679.28;;;4.72;54.46
55990;BME280;41875;55.806;38.082;2024-03-02T12:02:04;100679.78;;;4.94;54.47
55990;BME280;41875;55.806;38.082;2024-03-02T12:05:09;100683.63;;;4.88;54.71
55990;BME280;41875;55.806;38.082;2024-03-02T12:08:14;100678.09;;;4.78;54.14
55990;BME280;41875;55.806;38.082;2024-03-02T12:11:18;100690.19;;;4.95;53.99
55990;BME280;41875;55.806;38.082;2024-03-02T12:14:23;100686.41;;;4.56;55.26
55990;BME280;41875;55.806;38.082;2024-03-02T12:17:29;100686.63;;;5.11;53.83
55990;BME280;41875;55.806;38.082;2024-03-02T12:20:34;100677.34;;;5.19;53.46
55990;BME280;41875;55.806;38.082;2024-03-02T12:23:40;100686.69;;;4.66;55.38
55990;BME280;41875;55.806;38.082;2024-03-02T12:26:44;100694.00;;;4.46;55.17
55990;BME280;41875;55.806;38.082;2024-03-02T12:29:49;100686.88;;;4.77;54.53
55990;BME280;41875;55.806;38.082;2024-03-02T12:32:53;100693.75;;;4.80;54.28
55990;BME280;41875;55.806;38.082;2024-03-02T12:35:56;100690.41;;;4.47;55.13
55990;BME280;41875;55.806;38.082;2024-03-02T12:39:02;100695.06;;;4.27;55.72
55990;BME280;41875;55.806;38.082;2024-03-02T12:42:05;100700.41;;;4.71;54.50
55990;BME280;41875;55.806;38.082;2024-03-02T12:45:09;100683.63;;;4.88;53.76
55990;BME280;41875;55.806;38.082;2024-03-02T12:48:13;100690.38;;;4.02;55.95
55990;BME280;41875;55.806;38.082;2024-03-02T12:51:18;100686.75;;;4.35;55.48
55990;BME280;41875;55.806;38.082;2024-03-02T12:54:23;100675.75;;;4.88;54.12
55990;BME280;41875;55.806;38.082;2024-03-02T12:57:28;100683.22;;;4.51;55.48
55990;BME280;41875;55.806;38.082;2024-03-02T13:00:32;100685.00;;;4.65;55.25
55990;BME280;41875;55.806;38.082;2024-03-02T13:03:38;100684.31;;;5.06;54.00
55990;BME280;41875;55.806;38.082;2024-03-02T13:06:42;100676.31;;;4.93;54.53
55990;BME280;41875;55.806;38.082;2024-03-02T13:09:47;100680.16;;;5.02;54.01
55990;BME280;41875;55.806;38.082;2024-03-02T13:12:51;100678.16;;;4.62;55.10
55990;BME280;41875;55.806;38.082;2024-03-02T13:15:55;100679.28;;;4.58;54.92
55990;BME280;41875;55.806;38.082;2024-03-02T13:19:00;100680.53;;;3.75;57.09
55990;BME280;41875;55.806;38.082;2024-03-02T13:22:04;100672.47;;;4.25;56.33
55990;BME280;41875;55.806;38.082;2024-03-02T13:25:10;100687.75;;;4.33;56.29
55990;BME280;41875;55.806;38.082;2024-03-02T13:28:14;100691.47;;;4.14;56.24
55990;BME280;41875;55.806;38.082;2024-03-02T13:31:18;100687.19;;;4.27;56.15
55990;BME280;41875;55.806;38.082;2024-03-02T13:34:22;100685.84;;;4.51;55.89
55990;BME280;41875;55.806;38.082;2024-03-02T13:37:25;100687.25;;;4.56;55.56
55990;BME280;41875;55.806;38.082;2024-03-02T13:40:30;100689.00;;;4.41;56.55
55990;BME280;41875;55.806;38.082;2024-03-02T13:43:37;100677.69;;;4.55;56.15
55990;BME280;41875;55.806;38.082;2024-03-02T13:46:41;100683.81;;;4.85;54.66
55990;BME280;41875;55.806;38.082;2024-03-02T13:49:47;100691.13;;;4.65;55.03
55990;BME280;41875;55.806;38.082;2024-03-02T13:52:51;100682.63;;;4.91;54.44
55990;BME280;41875;55.806;38.082;2024-03-02T13:55:59;100681.19;;;4.99;54.18
55990;BME280;41875;55.806;38.082;2024-03-02T13:59:02;100687.00;;;4.90;53.95
55990;BME280;41875;55.806;38.082;2024-03-02T14:02:06;100686.59;;;4.53;55.26
55990;BME280;41875;55.806;38.082;2024-03-02T14:05:11;100684.47;;;4.60;54.67
55990;BME280;41875;55.806;38.082;2024-03-02T14:08:16;100684.47;;;4.29;56.04
55990;BME280;41875;55.806;38.082;2024-03-02T14:11:21;100689.41;;;4.50;55.63
55990;BME280;41875;55.806;38.082;2024-03-02T14:14:25;100691.44;;;4.45;55.73
55990;BME280;41875;55.806;38.082;2024-03-02T14:17:28;100687.81;;;4.62;55.33
55990;BME280;41875;55.806;38.082;2024-03-02T14:20:34;100697.38;;;4.18;56.71
55990;BME280;41875;55.806;38.082;2024-03-02T14:23:37;100685.56;;;4.25;56.45
55990;BME280;41875;55.806;38.082;2024-03-02T14:26:45;100694.81;;;4.47;55.81
55990;BME280;41875;55.806;38.082;2024-03-02T14:29:48;100694.09;;;4.59;55.41
55990;BME280;41875;55.806;38.082;2024-03-02T14:32:52;100693.31;;;4.42;55.91
55990;BME280;41875;55.806;38.082;2024-03-02T14:35:56;100703.16;;;4.39;55.67
55990;BME280;41875;55.806;38.082;2024-03-02T14:38:59;100698.34;;;4.31;56.07
55990;BME280;41875;55.806;38.082;2024-03-02T14:42:05;100698.00;;;4.37;56.01
55990;BME280;41875;55.806;38.082;2024-03-02T14:45:09;100699.69;;;4.38;55.76
55990;BME280;41875;55.806;38.082;2024-03-02T14:48:13;100701.78;;;4.32;55.95
55990;BME280;41875;55.806;38.082;2024-03-02T14:51:16;100701.53;;;4.06;57.23
55990;BME280;41875;55.806;38.082;2024-03-02T14:54:20;100705.31;;;4.16;56.52
55990;BME280;41875;55.806;38.082;2024-03-02T14:57:25;100705.06;;;4.21;56.47
55990;BME280;41875;55.806;38.082;2024-03-02T15:00:29;100707.94;;;4.16;56.74
55990;BME280;41875;55.806;38.082;2024-03-02T15:03:33;100708.63;;;4.20;56.54
55990;BME280;41875;55.806;38.082;2024-03-02T15:06:37;100711.47;;;4.31;56.15
55990;BME280;41875;55.806;38.082;2024-03-02T15:09:41;100714.53;;;4.23;56.62
55990;BME280;41875;55.806;38.082;2024-03-02T15:12:46;100704.25;;;4.35;55.97
55990;BME280;41875;55.806;38.082;2024-03-02T15:15:51;100704.69;;;4.27;56.46
55990;BME280;41875;55.806;38.082;2024-03-02T15:18:54;100717.31;;;4.20;56.63
55990;BME280;41875;55.806;38.082;2024-03-02T15:21:58;100713.81;;;4.05;57.06
55990;BME280;41875;55.806;38.082;2024-03-02T15:25:02;100716.16;;;4.10;57.27
55990;BME280;41875;55.806;38.082;2024-03-02T15:28:08;100716.47;;;3.73;58.29
55990;BME280;41875;55.806;38.082;2024-03-02T15:31:11;100722.38;;;3.93;57.76
55990;BME280;41875;55.806;38.082;2024-03-02T15:34:15;100724.03;;;4.10;57.36
55990;BME280;41875;55.806;38.082;2024-03-02T15:37:19;100725.94;;;3.92;57.67
55990;BME280;41875;55.806;38.082;2024-03-02T15:40:23;100720.16;;;4.01;57.57
55990;BME280;41875;55.806;38.082;2024-03-02T15:43:28;100720.50;;;3.95;57.72
55990;BME280;41875;55.806;38.082;2024-03-02T15:46:33;100723.09;;;3.95;57.77
55990;BME280;41875;55.806;38.082;2024-03-02T15:49:37;100716.00;;;3.97;58.06
55990;BME280;41875;55.806;38.082;2024-03-02T15:52:41;100711.88;;;3.77;58.63
55990;BME280;41875;55.806;38.082;2024-03-02T15:55:47;100712.31;;;3.53;59.48
55990;BME280;41875;55.806;38.082;2024-03-02T15:58:52;100707.75;;;3.57;59.50
55990;BME280;41875;55.806;38.082;2024-03-02T16:01:56;100720.00;;;3.24;60.47
55990;BME280;41875;55.806;38.082;2024-03-02T16:05:00;100709.97;;;2.99;61.47
55990;BME280;41875;55.806;38.082;2024-03-02T16:08:05;100708.50;;;3.27;60.88
55990;BME280;41875;55.806;38.082;2024-03-02T16:11:11;100706.47;;;3.32;60.71
55990;BME280;41875;55.806;38.082;2024-03-02T16:14:20;100705.25;;;3.22;61.03
55990;BME280;41875;55.806;38.082;2024-03-02T16:17:26;100706.63;;;3.29;60.92
55990;BME280;41875;55.806;38.082;2024-03-02T16:20:30;100699.44;;;3.16;61.15
55990;BME280;41875;55.806;38.082;2024-03-02T16:23:34;100711.19;;;2.92;62.03
55990;BME280;41875;55.806;38.082;2024-03-02T16:26:41;100716.91;;;2.82;62.72